Flight Track Log - Related Links

Times and Time Zones

All times are in EDT time to prevent confusion due to time zone crossing. See the IGO482 flight status page for this flight to view local times or setup timezone preferences in your user account.

Time Position Orientation Groundspeed Altitude Reporting Facility
EDT Latitude Longitude Course Direction KTS MPH feet Rate Location/Type
Tue 08:59:52 PM 14.2640 77.1200 325° Northwest 421 484 26,300  Level FlightAware ADS-B
Tue 09:00:27 PM 14.3150 77.0830 325° Northwest 421 484 26,300 1,250 Level FlightAware ADS-B
Tue 09:01:52 PM 14.4630 76.9810 326° Northwest 433 498 28,800 1,457 Climbing FlightAware ADS-B
Tue 09:02:47 PM 14.5530 76.9190 326° Northwest 436 502 29,700 540 Climbing FlightAware ADS-B
Tue 09:03:32 PM 14.6200 76.8700 325° Northwest 436 502 29,700 1,050 Level FlightAware ADS-B
Tue 09:04:07 PM 14.6860 76.8260 327° Northwest 441 507 31,100 1,050 Climbing FlightAware ADS-B
Tue 09:04:52 PM 14.7550 76.7760 325° Northwest 441 507 31,100  Level FlightAware ADS-B
Tue 09:05:42 PM 14.8260 76.7240 325° Northwest 441 507 31,100  Level FlightAware ADS-B
Tue 09:06:22 PM 14.8830 76.6830 325° Northwest 441 507 31,100 2,325 Level FlightAware ADS-B
Tue 09:07:02 PM 14.9860 76.6160 328° Northwest 443 510 34,200 2,188 Climbing FlightAware ADS-B
Tue 09:07:47 PM 15.0540 76.5660 325° Northwest 443 510 34,200 424 Level FlightAware ADS-B
Tue 09:08:27 PM 15.1300 76.5130 326° Northwest 443 510 34,800 1,350 Climbing FlightAware ADS-B
Tue 09:09:07 PM 15.1970 76.4670 326° Northwest 439 505 36,000 847 Climbing FlightAware ADS-B
Tue 09:09:52 PM 15.2670 76.4160 325° Northwest 439 505 36,000  Level FlightAware ADS-B
Tue 09:10:32 PM 15.3230 76.3750 325° Northwest 439 505 36,000  Level FlightAware ADS-B
Tue 09:11:12 PM 15.3800 76.3340 325° Northwest 439 505 36,000  Level FlightAware ADS-B
Tue 09:11:52 PM 15.4360 76.2930 325° Northwest 439 505 36,000  Level FlightAware ADS-B
Tue 09:12:42 PM 15.5070 76.2420 325° Northwest 439 505 36,000  Level FlightAware ADS-B
Tue 09:13:17 PM 15.6270 76.1630 328° Northwest 438 504 36,000  Level FlightAware ADS-B
Tue 09:14:07 PM 15.7070 76.1070 326° Northwest 440 506 36,000  Level FlightAware ADS-B
Tue 09:14:47 PM 15.7730 76.0600 326° Northwest 440 506 36,000  Level FlightAware ADS-B
Tue 09:15:22 PM 15.8380 76.0150 326° Northwest 440 506 36,000  Level FlightAware ADS-B
Tue 09:16:12 PM 15.9030 75.9680 325° Northwest 438 504 36,000  Level FlightAware ADS-B
Tue 09:17:07 PM 16.0110 75.8920 326° Northwest 435 501 36,000  Level FlightAware ADS-B
Tue 09:17:42 PM 16.0630 75.8540 325° Northwest 435 501 36,000  Level FlightAware ADS-B
Tue 09:18:32 PM 16.1330 75.8030 325° Northwest 435 501 36,000  Level FlightAware ADS-B
Tue 09:19:12 PM 16.1890 75.7620 325° Northwest 435 501 36,000  Level FlightAware ADS-B
Tue 09:19:52 PM 16.2450 75.7210 325° Northwest 435 501 36,000  Level FlightAware ADS-B
Tue 09:20:32 PM 16.3010 75.6800 325° Northwest 435 501 36,000 63 Level FlightAware ADS-B
Tue 09:21:27 PM 16.4450 75.5820 327° Northwest 440 506 36,100 60 Climbing FlightAware ADS-B
Tue 09:22:12 PM 16.5240 75.5250 325° Northwest 437 503 36,100 -75 Level FlightAware ADS-B
Tue 09:22:47 PM 16.5780 75.4840 324° Northwest 434 499 36,000 -71 Descending FlightAware ADS-B
Tue 09:23:37 PM 16.6450 75.4170 316° Northwest 428 493 36,000  Level FlightAware ADS-B
Tue 09:24:37 PM 16.7250 75.3270 313° West 428 493 36,000  Level FlightAware ADS-B
Tue 09:25:12 PM 16.7740 75.2740 314° West 427 491 36,000  Level FlightAware ADS-B
Tue 09:25:52 PM 16.8200 75.2230 313° West 427 491 36,000  Level FlightAware ADS-B
Tue 09:26:42 PM 16.8770 75.1590 313° West 427 491 36,000  Level FlightAware ADS-B
Tue 09:27:22 PM 16.9230 75.1070 313° West 427 491 36,000  Level FlightAware ADS-B
Tue 09:28:02 PM 16.9690 75.0560 313° West 427 491 36,000  Level FlightAware ADS-B
Tue 09:28:42 PM 17.0140 75.0050 313° West 427 491 36,000  Level FlightAware ADS-B
Tue 09:29:22 PM 17.0600 74.9530 313° West 427 491 36,000  Level FlightAware ADS-B
Tue 09:30:12 PM 17.1180 74.8890 313° West 427 491 36,000  Level FlightAware ADS-B
Tue 09:30:52 PM 17.2470 74.7520 315° West 420 483 36,000  Level FlightAware ADS-B
Tue 09:31:37 PM 17.3060 74.6870 314° West 422 486 36,000  Level FlightAware ADS-B
Tue 09:32:17 PM 17.3620 74.6250 313° West 423 487 36,000  Level FlightAware ADS-B
Tue 09:33:02 PM 17.4220 74.5580 313° West 425 489 36,000 -282 Level FlightAware ADS-B
Tue 09:33:42 PM 17.4760 74.4980 313° West 423 487 35,600 -750 Descending FlightAware ADS-B
Tue 09:34:22 PM 17.5300 74.4380 313° West 431 496 35,000 -988 Descending FlightAware ADS-B
Tue 09:35:07 PM 17.5910 74.3700 313° West 432 497 34,200 -1,200 Descending FlightAware ADS-B
Tue 09:35:47 PM 17.6480 74.3070 314° West 428 493 33,300 -1,553 Descending FlightAware ADS-B
Tue 09:36:32 PM 17.7060 74.2410 313° West 414 476 32,000 -1,765 Descending FlightAware ADS-B
Tue 09:37:12 PM 17.7590 74.1830 314° West 404 465 30,800 -1,950 Descending FlightAware ADS-B
Tue 09:37:52 PM 17.8090 74.1260 313° West 397 457 29,400 -2,329 Descending FlightAware ADS-B
Tue 09:38:37 PM 17.8670 74.0610 313° West 401 461 27,500 -2,259 Descending FlightAware ADS-B
Tue 09:39:17 PM 17.9180 74.0040 313° West 394 453 26,200 -1,906 Descending FlightAware ADS-B
Tue 09:40:02 PM 17.9720 73.9430 313° West 387 445 24,800 -1,765 Descending FlightAware ADS-B
Tue 09:40:42 PM 18.0210 73.8880 313° West 376 433 23,700 -1,875 Descending FlightAware ADS-B
Tue 09:41:22 PM 18.0680 73.8350 313° West 375 432 22,300 -1,976 Descending FlightAware ADS-B
Tue 09:42:07 PM 18.1220 73.7750 313° West 366 421 20,900 -1,835 Descending FlightAware ADS-B
Tue 09:42:47 PM 18.1690 73.7220 313° West 360 414 19,700 -1,650 Descending FlightAware ADS-B
Tue 09:43:27 PM 18.2120 73.6740 313° West 350 403 18,700 -1,624 Descending FlightAware ADS-B
Tue 09:44:12 PM 18.2610 73.6180 313° West 341 392 17,400 -1,694 Descending FlightAware ADS-B
Tue 09:44:52 PM 18.3040 73.5690 313° West 331 381 16,300 -1,765 Descending FlightAware ADS-B
Tue 09:45:37 PM 18.3520 73.5160 314° West 326 375 14,900 -1,976 Descending FlightAware ADS-B
Tue 09:46:17 PM 18.3920 73.4700 313° West 331 381 13,500 -2,025 Descending FlightAware ADS-B
Tue 09:46:57 PM 18.4360 73.4200 313° West 331 381 12,200 -1,906 Descending FlightAware ADS-B
Tue 09:47:42 PM 18.4880 73.3810 325° Northwest 338 389 10,800 -1,412 Descending FlightAware ADS-B
Tue 09:48:22 PM 18.5470 73.3510 334° Northwest 315 362 10,200 -943 Descending FlightAware ADS-B
Tue 09:48:52 PM 18.5850 73.3310 333° Northwest 305 351 9,700 -873 Descending FlightAware ADS-B
Tue 09:49:17 PM 18.6120 73.3170 334° Northwest 294 338 9,400 -655 Descending FlightAware ADS-B
Tue 09:49:47 PM 18.6520 73.2960 334° Northwest 273 314 9,100 -480 Descending FlightAware ADS-B
Tue 09:50:07 PM 18.6720 73.2850 332° Northwest 265 305 9,000 -109 Descending FlightAware ADS-B
Tue 09:50:42 PM 18.7070 73.2670 334° Northwest 264 304 9,000  Level FlightAware ADS-B
Tue 09:51:12 PM 18.7350 73.2520 333° Northwest 264 304 9,000  Level FlightAware ADS-B
Tue 09:51:32 PM 18.7530 73.2420 332° Northwest 264 304 9,000  Level FlightAware ADS-B
Tue 09:52:02 PM 18.7810 73.2270 333° Northwest 264 304 9,000  Level FlightAware ADS-B
Tue 09:54:00 PM 18.9641 73.0136 312° West  Level Estimated
Tue 09:55:00 PM 19.0571 72.9049 312° West  Level Estimated
Tue 09:56:00 PM 19.0887 72.8679 312° West  Level Estimated
Tue 09:57:00 PM 19.0887 72.8679 193° South  Level Estimated
Tue 09:58:00 PM 19.0887 72.8679 193° South  Level Estimated
Tue 09:59:00 PM 19.0887 72.8679 193° South  Level Estimated
Tue 10:00:00 PM 19.0887 72.8679 193° South  Level Estimated
Tue 10:01:00 PM 19.0887 72.8679 193° South  Level Estimated
Tue 10:02:00 PM 19.0887 72.8679 193° South  Level Estimated
Tue 10:03:00 PM 19.0887 72.8679 193° South  Level Estimated
Tue 10:04:00 PM 19.0887 72.8679 193° South  Level Estimated
Tue 10:05:00 PM 19.0887 72.8679 193° South  Level Estimated
Tue 10:06:00 PM 19.0887 72.8679 193° South  Level Estimated
Tue 10:07:00 PM 19.0887 72.8679 193° South  Level Estimated
Tue 10:08:00 PM 19.0887 72.8679 193° South  Level Estimated
Tue 10:09:00 PM 19.0887 72.8679 193° South  Level Estimated
Tue 10:10:00 PM 19.0887 72.8679 193° South  Level Estimated

Login

Don't have an account? Register now (free) for customized features, flight alerts, and more!